East Shoals, Indiana
Current Conditions -  °F | °C
As of 2:35 PM on Friday 21 Nov 2014 (Local Time) from KDCY Reporting Station
Clear Clear  
Wind Chill:   Ceiling: Unl
Heat Index:   Visibility: 10mi
Dew Point: -9°   Wind: 9mph
Humidity: 40%   Direction: 130°SE
Pressure: 30.41"   Gusts: NA
Location:  38.6262°N, 86.7615°W
Report Text: KDCY 212035Z AUTO 13008KT 10SM CLR 04/M09 A3041 RMK AO2 T00361090
Loading
Personal Weather Stations






























Interactive Weather Map New forecast layout! Learn more

10-Day Weather Forecast

Advertisements
Track Severe Weather on mobile